This is the latest recevied weather packets stored in our database for station/object KD5VOO. If no packets are shown the sender has not sent any weather packets the latest 10 day(s).
| Time | Temp. | Humidity | Pressure | Rain* | Wind** | Luminosity | Snow |
|---|---|---|---|---|---|---|---|
| 1777514744 | 22.78° C | 61% | 1010.2 hPa | 0 mm | - | 0 W/m² | - |
| 1777514442 | 22.78° C | 61% | 1010.5 hPa | 0 mm | - | 0 W/m² | - |
| 1777514138 | 22.78° C | 61% | 1009.9 hPa | 0 mm | - | 0 W/m² | - |
| 1777513835 | 22.78° C | 61% | 1009.9 hPa | 0 mm | - | 0 W/m² | - |
| 1777513532 | 22.78° C | 60% | 1009.9 hPa | 0 mm | - | 0 W/m² | - |
| 1777513229 | 22.78° C | 60% | 1009.9 hPa | 0 mm | - | 0 W/m² | - |
| 1777512925 | 23.33° C | 60% | 1009.9 hPa | 0 mm | - | 0 W/m² | - |
| 1777512622 | 23.33° C | 59% | 1009.9 hPa | 0 mm | - | 0 W/m² | - |
| 1777512319 | 23.33° C | 59% | 1009.9 hPa | 0 mm | - | 0 W/m² | - |
| 1777512015 | 23.33° C | 59% | 1009.5 hPa | 0 mm | - | 0 W/m² | - |
| 1777511714 | 23.33° C | 59% | 1009.5 hPa | 0 mm | - | 0 W/m² | - |
| 1777511411 | 23.89° C | 59% | 1009.5 hPa | 0 mm | - | 0 W/m² | - |
| 1777511108 | 23.89° C | 58% | 1009.2 hPa | 0 mm | - | 0 W/m² | - |
| 1777510500 | 24.44° C | 58% | 1009.2 hPa | 0 mm | - | 0 W/m² | - |
| 1777510196 | 25° C | 58% | 1009.2 hPa | 0 mm | - | 0 W/m² | - |
| 1777509893 | 25.56° C | 58% | 1008.8 hPa | 0 mm | - | 0 W/m² | - |
| 1777508679 | 27.22° C | 55% | 1007.8 hPa | 0 mm | - | 0 W/m² | - |
| 1777508377 | 27.78° C | 55% | 1007.8 hPa | 0 mm | - | 0 W/m² | - |
| 1777507770 | 27.78° C | 55% | 1007.8 hPa | 0 mm | - | 1 W/m² | - |
| 1777507467 | 27.78° C | 55% | 1008.2 hPa | 0 mm | - | 1 W/m² | - |
| 1777507164 | 27.78° C | 55% | 1007.8 hPa | 0 mm | - | 5 W/m² | - |
| 1777506862 | 27.78° C | 55% | 1008.2 hPa | 0 mm | - | 5 W/m² | - |
| 1777506559 | 28.33° C | 55% | 1008.2 hPa | 0 mm | - | 4 W/m² | - |
| 1777502310 | 30.56° C | 45% | 1007.1 hPa | 0 mm | - | 88 W/m² | - |
| 1777502006 | 30.56° C | 44% | 1006.8 hPa | 0 mm | - | 145 W/m² | - |
* Rain latest hour (hover to see other rain measurements)
** Current wind speed in m/s (hover to see current wind gust speed)